Time;durP1;ratioP1;P1;durP2;ratioP2;P2;SDS_P1;SDS_P2;PMS_P1;PMS_P2;Temp;Humidity;BMP_temperature;BMP_pressure;BME280_temperature;BME280_humidity;BME280_pressure;Samples;Min_cycle;Max_cycle;Signal;HPM_P1;HPM_P2
2022/05/01 00:00:25;;;;;;;4.30;3.63;;;6.10;99.90;6.40;97014.00;;;;4976443;28;20199;-86
2022/05/01 00:02:54;;;;;;;4.00;3.57;;;6.10;99.90;6.10;97021.00;;;;4979093;28;20207;-85
2022/05/01 00:05:23;;;;;;;4.53;3.20;;;6.10;99.90;5.90;97013.00;;;;4976633;28;20233;-85
2022/05/01 00:07:52;;;;;;;5.30;3.37;;;6.00;99.90;6.20;97017.00;;;;4976894;28;20204;-85
2022/05/01 00:10:20;;;;;;;4.00;3.63;;;6.00;99.90;6.10;97013.00;;;;4976768;28;20199;-85
2022/05/01 00:12:50;;;;;;;4.47;4.07;;;6.00;99.90;6.20;97024.00;;;;4977862;28;20204;-85
2022/05/01 00:15:19;;;;;;;4.10;3.70;;;6.00;99.90;6.20;97014.00;;;;4975138;28;20219;-85
2022/05/01 00:17:48;;;;;;;4.17;3.87;;;6.00;99.90;6.30;97013.00;;;;4974557;28;20482;-85
2022/05/01 00:20:16;;;;;;;3.57;3.10;;;6.00;99.90;6.10;97006.00;;;;4974960;28;20191;-84
2022/05/01 00:22:45;;;;;;;5.50;3.73;;;6.00;99.90;6.30;97010.00;;;;4975721;28;20207;-85
2022/05/01 00:25:14;;;;;;;3.97;3.57;;;6.00;99.90;6.40;97009.00;;;;4975248;28;20223;-85
2022/05/01 00:27:42;;;;;;;5.83;3.73;;;6.00;99.90;6.20;97004.00;;;;4974698;28;20199;-85
2022/05/01 00:30:13;;;;;;;4.53;4.03;;;6.00;99.90;5.90;97003.00;;;;4975753;28;20203;-85
2022/05/01 00:38:14;;;;;;;4.07;3.63;;;5.90;99.90;6.40;97011.00;;;;4974743;28;20221;-85
2022/05/01 00:40:43;;;;;;;4.70;4.13;;;5.90;99.90;6.40;97006.00;;;;4975123;28;20343;-84
2022/05/01 00:43:11;;;;;;;3.77;3.47;;;5.90;99.90;6.00;96997.00;;;;4974929;28;20203;-85
2022/05/01 00:45:41;;;;;;;4.30;4.00;;;5.90;99.90;6.10;97002.00;;;;4974777;28;20222;-84
2022/05/01 00:48:10;;;;;;;5.47;4.43;;;5.80;99.90;6.30;97006.00;;;;4975228;28;20286;-84
2022/05/01 00:50:38;;;;;;;4.93;4.43;;;5.90;99.90;6.60;97005.00;;;;4974266;28;20254;-84
2022/05/01 00:53:09;;;;;;;3.87;3.57;;;5.90;99.90;6.80;97007.00;;;;4974949;28;20218;-85
2022/05/01 00:55:39;;;;;;;7.27;3.97;;;6.10;99.90;6.80;97009.00;;;;4974571;28;20306;-86
2022/05/01 00:58:09;;;;;;;4.27;3.87;;;6.20;99.90;6.70;96997.00;;;;4973829;28;20211;-85
2022/05/01 01:00:37;;;;;;;4.57;3.67;;;6.20;99.90;6.70;96999.00;;;;4974287;28;20192;-84
2022/05/01 01:03:07;;;;;;;4.63;3.73;;;6.30;99.90;6.40;96989.00;;;;4973932;28;20203;-85
2022/05/01 01:05:36;;;;;;;4.20;3.80;;;6.20;99.90;6.40;96993.00;;;;4974496;28;20226;-85
2022/05/01 01:08:06;;;;;;;4.73;3.83;;;6.20;99.90;6.40;96990.00;;;;4974033;28;20196;-86
2022/05/01 01:10:34;;;;;;;3.83;3.43;;;6.10;99.90;6.20;96988.00;;;;4974121;28;20199;-85
2022/05/01 01:13:03;;;;;;;6.77;3.30;;;6.10;99.90;6.10;96986.00;;;;4973723;28;20199;-85
2022/05/01 01:15:32;;;;;;;5.93;4.00;;;6.00;99.90;5.90;96984.00;;;;4974147;28;20302;-85
2022/05/01 01:18:00;;;;;;;5.57;3.70;;;6.00;99.90;6.30;96993.00;;;;4973819;28;20199;-85
2022/05/01 01:20:31;;;;;;;4.20;3.80;;;6.00;99.90;6.50;96992.00;;;;4974020;28;20223;-85
2022/05/01 01:23:02;;;;;;;6.93;3.83;;;6.00;99.90;6.70;96984.00;;;;4972691;28;20203;-85
2022/05/01 01:25:33;;;;;;;6.73;4.13;;;6.10;99.90;6.80;96991.00;;;;4974078;28;20253;-85
2022/05/01 01:28:04;;;;;;;4.27;3.90;;;6.10;99.90;6.50;96978.00;;;;4973197;28;20187;-84
2022/05/01 01:33:20;;;;;;;4.40;4.00;;;6.10;99.90;6.10;96977.00;;;;4973980;28;20217;-85
2022/05/01 01:35:52;;;;;;;5.23;3.90;;;6.00;99.90;6.40;96967.00;;;;4972993;28;20222;-84
2022/05/01 01:38:22;;;;;;;3.87;3.57;;;6.00;99.90;6.20;96970.00;;;;4972829;28;20294;-85
2022/05/01 01:40:53;;;;;;;9.27;4.53;;;6.00;99.90;5.80;96958.00;;;;4973908;28;20287;-85
2022/05/01 01:43:26;;;;;;;3.60;3.30;;;5.90;99.90;5.90;96962.00;;;;4973691;28;20430;-84
2022/05/01 01:45:55;;;;;;;7.87;4.20;;;6.60;99.90;6.00;96964.00;;;;4973722;28;20219;-85
2022/05/01 01:48:25;;;;;;;5.13;4.37;;;5.80;99.90;6.20;96969.00;;;;4974388;28;20288;-85
2022/05/01 01:50:57;;;;;;;4.70;4.30;;;5.80;99.90;6.40;96964.00;;;;4973244;28;20250;-85
2022/05/01 01:53:28;;;;;;;7.07;3.30;;;5.90;99.90;6.50;96968.00;;;;4973951;28;20207;-85
2022/05/01 01:55:58;;;;;;;6.80;5.17;;;6.00;99.90;6.60;96971.00;;;;4973272;28;20266;-86
2022/05/01 01:58:27;;;;;;;4.00;3.70;;;6.00;99.90;6.60;96963.00;;;;4972974;28;20203;-84
2022/05/01 02:00:56;;;;;;;4.43;4.03;;;6.10;99.90;6.20;96961.00;;;;4972854;28;20237;-85
2022/05/01 02:03:25;;;;;;;3.93;3.63;;;6.00;99.90;6.10;96962.00;;;;4972854;28;20192;-85
2022/05/01 02:05:54;;;;;;;4.07;3.67;;;6.00;99.90;6.10;96960.00;;;;4973120;28;20231;-85
2022/05/01 02:08:23;;;;;;;5.93;4.10;;;5.90;99.90;6.00;96959.00;;;;4973039;28;20240;-85
2022/05/01 02:10:53;;;;;;;4.33;3.93;;;5.90;99.90;5.80;96954.00;;;;4973166;28;20203;-85
2022/05/01 02:13:21;;;;;;;9.73;4.27;;;5.80;99.90;5.90;96955.00;;;;4973608;28;20434;-85
2022/05/01 02:15:50;;;;;;;8.97;4.37;;;5.80;99.90;5.60;96953.00;;;;4973580;28;20455;-85
2022/05/01 02:18:19;;;;;;;5.17;3.83;;;5.70;99.90;5.80;96950.00;;;;4972505;28;20446;-85
2022/05/01 02:23:36;;;;;;;4.73;4.30;;;5.60;99.90;6.00;96949.00;;;;4968299;28;20435;-85
2022/05/01 02:26:06;;;;;;;3.90;3.50;;;5.70;99.90;6.40;96956.00;;;;4973931;28;20454;-85
2022/05/01 02:28:36;;;;;;;5.27;4.43;;;5.70;99.90;6.50;96948.00;;;;4972417;28;20294;-85
2022/05/01 02:31:04;;;;;;;5.10;4.10;;;5.80;99.90;6.70;96951.00;;;;4973132;28;20437;-84
2022/05/01 02:33:33;;;;;;;5.87;3.73;;;5.90;99.90;6.40;96947.00;;;;4972316;28;20215;-84
2022/05/01 02:36:03;;;;;;;4.37;3.63;;;6.00;99.90;6.30;96955.00;;;;4973315;28;20227;-85
2022/05/01 02:38:34;;;;;;;5.77;3.80;;;6.00;99.90;5.90;96937.00;;;;4974779;28;20202;-83
2022/05/01 02:41:03;;;;;;;4.00;3.70;;;5.90;99.90;6.00;96944.00;;;;4987768;28;20247;-84
2022/05/01 02:43:33;;;;;;;4.90;4.17;;;5.90;99.90;5.50;96946.00;;;;4976755;28;20203;-85
2022/05/01 02:46:01;;;;;;;3.83;3.53;;;5.70;99.90;5.60;96943.00;;;;4977267;28;20219;-84
2022/05/01 02:48:30;;;;;;;5.20;3.83;;;5.60;99.90;5.70;96940.00;;;;4975741;28;20200;-85
2022/05/01 02:50:58;;;;;;;4.77;4.10;;;5.60;99.90;5.60;96935.00;;;;4976911;28;20271;-84
2022/05/01 02:53:27;;;;;;;8.27;4.53;;;5.70;99.90;5.90;96943.00;;;;4976577;28;20200;-85
2022/05/01 02:55:56;;;;;;;6.83;4.97;;;5.70;99.90;5.90;96939.00;;;;4976921;28;20466;-84
2022/05/01 02:58:24;;;;;;;5.20;3.60;;;5.70;99.90;6.00;96941.00;;;;4976922;28;20203;-85
2022/05/01 03:00:54;;;;;;;2.40;2.07;;;5.70;99.90;5.50;96934.00;;;;4976542;28;20222;-85
2022/05/01 03:03:24;;;;;;;3.43;3.07;;;5.70;99.90;5.60;96931.00;;;;4976860;28;20435;-85
2022/05/01 03:05:53;;;;;;;5.43;4.33;;;5.60;99.90;5.90;96930.00;;;;4976532;28;20451;-86
2022/05/01 03:08:23;;;;;;;7.50;5.03;;;5.70;99.90;6.30;96929.00;;;;4976894;28;20431;-85
2022/05/01 03:10:53;;;;;;;4.70;4.20;;;5.80;99.90;6.00;96933.00;;;;4977974;28;20446;-86
2022/05/01 03:13:22;;;;;;;4.67;3.70;;;5.80;99.90;5.50;96932.00;;;;4976930;28;20210;-86
2022/05/01 03:15:51;;;;;;;4.67;4.27;;;5.80;99.90;5.90;96930.00;;;;4977109;28;20273;-85
2022/05/01 03:23:53;;;;;;;4.67;3.80;;;5.80;99.90;5.70;96927.00;;;;4977690;28;20203;-86
2022/05/01 03:26:21;;;;;;;4.30;3.90;;;5.80;99.90;5.60;96929.00;;;;4977535;28;20219;-84
2022/05/01 03:28:50;;;;;;;5.33;4.53;;;5.80;99.90;5.80;96938.00;;;;4977484;28;20462;-85
2022/05/01 03:31:19;;;;;;;4.83;4.43;;;5.80;99.90;6.00;96937.00;;;;4975083;28;20211;-85
2022/05/01 03:33:49;;;;;;;4.27;3.90;;;5.80;99.90;6.20;96937.00;;;;4974872;28;20218;-85
2022/05/01 03:36:18;;;;;;;4.87;4.47;;;5.80;99.90;6.30;96937.00;;;;4975453;28;20509;-84
2022/05/01 03:38:46;;;;;;;5.63;4.27;;;5.90;99.90;6.50;96938.00;;;;4972804;28;20230;-84
2022/05/01 03:41:18;;;;;;;5.83;5.17;;;6.00;99.90;6.50;96936.00;;;;4972640;28;20486;-85
2022/05/01 03:43:47;;;;;;;4.60;4.20;;;6.10;99.90;6.50;96939.00;;;;4972933;28;20474;-84
2022/05/01 03:46:15;;;;;;;6.27;4.83;;;6.20;99.90;6.90;96936.00;;;;4972599;28;20223;-84
2022/05/01 03:48:44;;;;;;;7.80;4.43;;;6.70;99.90;6.80;96936.00;;;;4972655;28;20202;-84
2022/05/01 03:51:14;;;;;;;4.67;3.93;;;6.40;99.90;7.00;96939.00;;;;4972612;28;20207;-84
2022/05/01 03:53:44;;;;;;;5.20;4.73;;;6.50;99.90;7.10;96947.00;;;;4972883;28;20233;-86
2022/05/01 03:56:13;;;;;;;6.50;4.73;;;6.60;99.90;7.00;96940.00;;;;4971589;28;20243;-86
2022/05/01 03:58:41;;;;;;;4.90;4.47;;;6.70;99.90;7.20;96940.00;;;;4972012;28;20270;-85
2022/05/01 04:01:10;;;;;;;4.40;4.00;;;6.80;99.90;7.30;96939.00;;;;4971902;28;20223;-85
2022/05/01 04:03:39;;;;;;;10.27;4.73;;;6.80;99.90;7.20;96942.00;;;;4967410;28;20258;-84
2022/05/01 04:06:07;;;;;;;7.50;3.97;;;6.90;99.90;6.70;96937.00;;;;4971398;28;20215;-86
2022/05/01 04:08:37;;;;;;;6.53;4.97;;;6.80;99.90;7.00;96951.00;;;;4971500;28;20219;-84
2022/05/01 04:11:06;;;;;;;5.60;5.10;;;6.70;99.90;7.40;96951.00;;;;4972329;28;20207;-84
2022/05/01 04:13:35;;;;;;;7.00;4.27;;;6.80;99.90;7.20;96942.00;;;;4972355;28;20212;-85
2022/05/01 04:16:05;;;;;;;4.93;4.43;;;6.90;99.90;7.10;96950.00;;;;4971641;28;20226;-84
2022/05/01 04:18:34;;;;;;;4.60;4.20;;;6.90;99.90;7.30;96950.00;;;;4972423;28;20198;-85
2022/05/01 04:21:03;;;;;;;7.90;4.90;;;6.90;99.90;7.50;96943.00;;;;4959737;28;20235;-84
2022/05/01 04:23:32;;;;;;;5.37;4.57;;;6.90;99.90;7.60;96939.00;;;;4971297;28;20299;-84
2022/05/01 04:26:03;;;;;;;4.93;4.20;;;7.00;99.90;7.50;96957.00;;;;4968836;28;20239;-85
2022/05/01 04:28:32;;;;;;;4.60;4.20;;;7.00;99.90;7.30;96946.00;;;;4971000;28;20207;-85
2022/05/01 04:31:00;;;;;;;7.60;4.30;;;7.00;99.90;7.20;96956.00;;;;4974958;28;20201;-85
2022/05/01 04:33:29;;;;;;;6.73;4.90;;;7.00;99.90;7.50;96956.00;;;;4975677;28;20218;-85
2022/05/01 04:35:57;;;;;;;5.17;4.43;;;7.10;99.90;7.60;96960.00;;;;4974584;28;20299;-85
2022/05/01 04:38:27;;;;;;;5.60;4.37;;;7.10;99.90;7.70;96968.00;;;;4974707;28;20200;-85
2022/05/01 04:40:58;;;;;;;6.73;5.03;;;7.20;99.90;8.10;96972.00;;;;4978194;28;20254;-85
2022/05/01 04:43:30;;;;;;;6.47;4.40;;;7.30;99.90;8.10;96974.00;;;;4976474;28;20207;-85
2022/05/01 04:45:59;;;;;;;5.13;4.70;;;7.40;99.90;8.30;96978.00;;;;4976984;28;20219;-85
2022/05/01 04:48:29;;;;;;;7.70;4.70;;;7.50;99.90;8.20;96990.00;;;;4976355;28;20298;-85
2022/05/01 04:50:59;;;;;;;4.87;4.30;;;7.60;99.90;8.20;96987.00;;;;4976662;28;20199;-85
2022/05/01 04:53:28;;;;;;;5.03;4.10;;;7.60;99.90;8.20;96982.00;;;;4975995;28;20204;-84
2022/05/01 04:57:04;;;;;;;7.53;4.10;;;7.70;99.90;8.20;96988.00;;;;4976113;28;20246;-86
2022/05/01 04:58:48;;;;;;;5.00;4.50;;;7.70;99.90;8.40;96990.00;;;;4966559;28;20206;-85
2022/05/01 05:01:19;;;;;;;6.87;4.83;;;7.70;99.90;8.40;96998.00;;;;4976034;28;20322;-84
2022/05/01 05:03:47;;;;;;;4.03;3.63;;;7.80;99.90;8.30;96990.00;;;;4976153;28;20229;-85
2022/05/01 05:06:16;;;;;;;7.47;4.67;;;7.80;99.90;8.40;96992.00;;;;4977387;28;20223;-84
2022/05/01 05:11:31;;;;;;;4.77;4.10;;;7.90;99.90;9.00;97010.00;;;;4968107;28;20215;-84
2022/05/01 05:14:01;;;;;;;5.37;4.30;;;8.00;99.90;9.20;97011.00;;;;4976449;28;20192;-84
2022/05/01 05:16:31;;;;;;;9.80;5.03;;;8.10;99.90;9.00;97002.00;;;;4974404;28;20223;-85
2022/05/01 05:18:59;;;;;;;4.93;4.40;;;8.20;99.90;9.10;97001.00;;;;4976290;28;20260;-86
2022/05/01 05:21:28;;;;;;;5.27;4.77;;;8.30;99.90;9.20;97010.00;;;;4975983;28;20219;-84
2022/05/01 05:24:00;;;;;;;5.20;4.73;;;8.40;99.90;9.20;97019.00;;;;4974148;28;20270;-84
2022/05/01 05:26:28;;;;;;;6.60;4.37;;;7.80;99.90;9.40;97017.00;;;;4973002;28;20219;-84
2022/05/01 05:28:57;;;;;;;8.20;5.13;;;8.50;99.90;9.30;97005.00;;;;4974947;28;20203;-85
2022/05/01 05:31:27;;;;;;;8.10;4.87;;;8.60;99.90;9.10;97006.00;;;;4973910;28;20206;-85
2022/05/01 05:33:55;;;;;;;6.60;4.97;;;8.60;99.90;9.10;97008.00;;;;4972726;28;20672;-85
2022/05/01 05:36:24;;;;;;;5.23;4.73;;;8.60;99.90;9.10;97024.00;;;;4973232;28;20242;-84
2022/05/01 05:38:53;;;;;;;5.37;4.83;;;8.60;99.90;9.20;97013.00;;;;4972822;28;20203;-85
2022/05/01 05:41:22;;;;;;;6.00;5.37;;;8.70;99.90;9.20;97008.00;;;;4974814;28;20221;-85
2022/05/01 05:43:50;;;;;;;8.47;5.60;;;8.70;99.90;9.30;97008.00;;;;4973256;28;20191;-85
2022/05/01 05:46:19;;;;;;;5.27;4.57;;;8.70;99.90;9.30;97016.00;;;;4974965;28;20235;-83
2022/05/01 05:48:49;;;;;;;5.97;5.37;;;8.70;99.90;9.60;97022.00;;;;4972976;28;20254;-85
2022/05/01 05:51:17;;;;;;;7.43;5.73;;;8.80;99.90;9.70;97048.00;;;;4974262;28;20237;-84
2022/05/01 05:53:46;;;;;;;7.73;5.40;;;8.80;99.90;9.60;97051.00;;;;4971455;28;20203;-85
2022/05/01 05:56:14;;;;;;;9.97;6.20;;;8.80;99.90;9.60;97053.00;;;;4974886;28;20237;-85
2022/05/01 05:58:43;;;;;;;9.33;6.20;;;8.90;99.90;9.60;97051.00;;;;4973567;28;20206;-85
2022/05/01 06:01:12;;;;;;;10.23;7.00;;;8.90;99.90;9.40;97063.00;;;;4973941;28;20223;-86
2022/05/01 06:03:41;;;;;;;12.33;6.37;;;8.90;99.90;9.50;97061.00;;;;4971093;28;20192;-88
2022/05/01 06:06:12;;;;;;;15.90;6.70;;;8.80;99.90;9.50;97056.00;;;;4976273;28;20225;-89
2022/05/01 06:08:41;;;;;;;6.60;5.90;;;8.80;99.90;9.50;97044.00;;;;4995417;28;20191;-89
2022/05/01 06:11:09;;;;;;;6.80;6.27;;;8.80;99.90;9.30;97058.00;;;;4997431;28;20208;-91
2022/05/01 06:13:38;;;;;;;6.77;6.07;;;8.80;99.90;8.90;97053.00;;;;4997235;28;20195;-88
2022/05/01 06:16:07;;;;;;;13.43;10.80;;;8.70;99.90;9.00;97067.00;;;;4984575;28;20235;-91
2022/05/01 06:18:36;;;;;;;12.07;8.93;;;8.70;99.90;9.30;97061.00;;;;4973300;28;20227;-90
2022/05/01 06:21:05;;;;;;;7.23;6.50;;;8.70;99.90;9.30;97066.00;;;;4973678;28;20223;-90
2022/05/01 06:23:36;;;;;;;6.67;6.03;;;8.70;99.90;9.50;97074.00;;;;4972797;28;20297;-91
2022/05/01 06:26:07;;;;;;;7.53;6.37;;;8.70;99.90;9.50;97067.00;;;;4972193;28;20329;-89
2022/05/01 06:28:36;;;;;;;7.97;7.17;;;8.90;99.90;9.30;97068.00;;;;4973379;28;20203;-89
2022/05/01 06:31:05;;;;;;;9.83;6.63;;;8.70;99.90;9.40;97067.00;;;;4973257;28;20231;-90
2022/05/01 06:33:36;;;;;;;8.73;7.83;;;8.80;99.90;9.60;97053.00;;;;4973146;28;20203;-89
2022/05/01 06:36:06;;;;;;;7.17;6.57;;;8.90;99.90;9.60;97059.00;;;;4972541;28;20266;-90
2022/05/01 06:38:37;;;;;;;9.10;6.00;;;8.80;99.90;9.30;97063.00;;;;4972825;28;20199;-89
2022/05/01 06:41:06;;;;;;;9.27;7.80;;;8.80;99.90;9.10;97057.00;;;;4973028;28;20215;-90
2022/05/01 06:43:43;;;;;;;8.57;7.77;;;8.80;99.90;9.30;97061.00;;;;4970233;28;20203;-90
2022/05/01 06:46:13;;;;;;;10.13;9.13;;;8.70;99.90;9.60;97052.00;;;;4969977;28;20218;-89
2022/05/01 06:48:44;;;;;;;9.97;8.30;;;8.80;99.90;9.60;97060.00;;;;4965632;28;20618;-91
2022/05/01 06:51:13;;;;;;;8.60;7.63;;;8.80;99.90;9.70;97069.00;;;;4979733;28;20233;-90
2022/05/01 06:53:44;;;;;;;9.83;8.03;;;9.00;99.90;9.70;97070.00;;;;4974798;28;20229;-90
2022/05/01 06:56:13;;;;;;;7.50;6.77;;;8.90;99.90;9.60;97078.00;;;;4972185;28;20246;-90
2022/05/01 06:58:41;;;;;;;6.70;6.10;;;9.00;99.90;9.40;97070.00;;;;4972271;28;20203;-91
2022/05/01 07:01:13;;;;;;;8.47;6.47;;;7.30;99.90;9.40;97072.00;;;;4970952;28;20182;-90
2022/05/01 07:03:42;;;;;;;8.07;5.67;;;9.20;99.90;9.70;97079.00;;;;4971628;28;21029;-91
2022/05/01 07:06:11;;;;;;;8.53;7.57;;;9.20;99.90;9.80;97075.00;;;;4970898;28;20248;-91
2022/05/01 07:08:40;;;;;;;7.07;6.37;;;9.20;99.90;10.00;97087.00;;;;4971329;28;20547;-91
2022/05/01 07:11:10;;;;;;;7.83;7.07;;;9.10;99.90;9.80;97088.00;;;;4972423;28;20192;-92
2022/05/01 07:13:40;;;;;;;7.37;6.67;;;9.20;99.90;9.50;97085.00;;;;4969454;28;20192;-91
2022/05/01 07:16:09;;;;;;;7.07;6.40;;;9.20;99.90;9.80;97089.00;;;;4966938;28;20252;-91
2022/05/01 07:18:42;;;;;;;8.40;6.97;;;9.30;99.90;9.60;97088.00;;;;4969159;28;20373;-91
2022/05/01 07:21:11;;;;;;;9.50;7.13;;;9.10;99.90;9.60;97088.00;;;;4987967;28;20201;-93
2022/05/01 07:23:40;;;;;;;7.73;6.70;;;9.10;99.90;9.90;97085.00;;;;4994394;28;20223;-93
2022/05/01 07:26:11;;;;;;;8.07;7.27;;;9.10;99.90;9.90;97095.00;;;;4994339;28;20211;-92
2022/05/01 07:28:40;;;;;;;8.70;7.37;;;9.10;99.90;10.00;97078.00;;;;4983922;28;20211;-88
2022/05/01 07:31:08;;;;;;;7.97;6.93;;;9.30;99.90;9.90;97089.00;;;;4971828;28;20207;-92
2022/05/01 07:33:40;;;;;;;12.37;7.43;;;9.20;99.90;10.20;97087.00;;;;4967881;28;20246;-91
2022/05/01 07:36:12;;;;;;;8.30;7.50;;;9.30;99.90;10.20;97095.00;;;;4963984;28;20237;-91
2022/05/01 07:38:46;;;;;;;10.83;7.33;;;9.60;99.90;10.50;97084.00;;;;4980081;28;20214;-94
2022/05/01 07:44:16;;;;;;;9.30;6.87;;;8.60;99.90;10.60;97079.00;;;;5094167;27;20631;-71
2022/05/01 07:46:44;;;;;;;10.60;7.00;;;9.60;99.90;10.50;97082.00;;;;5074548;28;20203;-71
2022/05/01 07:49:14;;;;;;;8.07;6.40;;;9.70;99.90;10.40;97083.00;;;;5072193;28;20203;-71
2022/05/01 07:51:43;;;;;;;6.87;6.17;;;9.80;99.90;10.40;97089.00;;;;5073056;28;20283;-71
2022/05/01 07:54:11;;;;;;;8.73;7.27;;;9.70;99.90;10.30;97084.00;;;;5069209;28;20253;-70
2022/05/01 07:56:42;;;;;;;7.53;6.73;;;9.70;99.90;10.30;97086.00;;;;5065012;22;20240;-69
2022/05/01 07:59:11;;;;;;;9.63;6.60;;;9.70;99.90;10.70;97086.00;;;;5028966;28;20258;-69
2022/05/01 08:01:41;;;;;;;9.30;7.03;;;9.70;99.90;10.70;97091.00;;;;5028822;28;20259;-69
2022/05/01 08:07:01;;;;;;;10.70;6.57;;;9.80;99.90;10.80;97086.00;;;;5015589;28;20217;-69
2022/05/01 08:09:31;;;;;;;10.20;6.57;;;9.90;99.90;10.80;97081.00;;;;5007385;28;20668;-69
2022/05/01 08:11:59;;;;;;;6.73;6.10;;;9.90;99.90;10.80;97084.00;;;;5017149;28;20206;-69
2022/05/01 08:14:28;;;;;;;9.67;6.90;;;9.90;99.90;10.50;97084.00;;;;5019040;28;20201;-69
2022/05/01 08:16:58;;;;;;;11.90;7.57;;;9.90;99.90;10.60;97088.00;;;;5017905;28;20218;-70
2022/05/01 08:22:13;;;;;;;7.33;6.10;;;9.90;99.90;10.80;97089.00;;;;5019345;28;20567;-69
2022/05/01 08:24:42;;;;;;;9.50;7.67;;;9.90;99.90;10.50;97085.00;;;;5019457;28;20190;-70
2022/05/01 08:27:10;;;;;;;9.93;6.50;;;9.90;99.90;10.80;97087.00;;;;5021483;28;20248;-70
2022/05/01 08:29:39;;;;;;;8.27;7.40;;;9.90;99.90;10.80;97083.00;;;;5016881;28;20205;-70
2022/05/01 08:32:09;;;;;;;8.17;7.30;;;9.90;99.90;10.80;97084.00;;;;5012389;28;20313;-70
2022/05/01 08:34:37;;;;;;;7.40;6.40;;;10.00;99.90;10.60;97084.00;;;;5015466;28;20210;-70
2022/05/01 08:37:06;;;;;;;10.37;9.17;;;9.90;99.90;10.50;97076.00;;;;5018349;28;20610;-70
2022/05/01 08:39:35;;;;;;;9.10;8.20;;;9.90;99.90;10.30;97077.00;;;;5015125;28;20206;-70
2022/05/01 08:42:05;;;;;;;10.57;7.67;;;9.90;99.90;10.50;97081.00;;;;5008250;28;20292;-70
2022/05/01 08:44:37;;;;;;;8.97;8.07;;;9.90;99.90;10.60;97072.00;;;;5017422;28;20267;-70
2022/05/01 08:47:20;;;;;;;8.17;6.80;;;9.90;99.90;11.00;97076.00;;;;5021222;28;20225;-70
2022/05/01 08:49:55;;;;;;;10.63;8.50;;;10.00;99.90;11.40;97062.00;;;;5023851;28;20201;-69
2022/05/01 08:52:25;;;;;;;8.13;7.33;;;10.10;99.90;11.30;97066.00;;;;5025033;28;20283;-70
2022/05/01 08:54:54;;;;;;;10.30;8.13;;;10.30;99.90;11.20;97072.00;;;;5006453;28;20205;-69
2022/05/01 08:57:23;;;;;;;9.43;8.53;;;10.40;99.90;11.40;97064.00;;;;5003422;28;20625;-69
2022/05/01 08:59:54;;;;;;;8.07;7.27;;;10.40;99.90;11.80;97074.00;;;;5004185;28;20198;-71
2022/05/01 09:02:25;;;;;;;7.97;7.13;;;10.60;99.90;11.90;97074.00;;;;5002634;28;20210;-70
2022/05/01 09:04:53;;;;;;;9.80;7.60;;;10.70;99.90;11.80;97078.00;;;;5002509;28;20353;-70
2022/05/01 09:07:22;;;;;;;9.43;6.93;;;10.80;99.90;11.30;97074.00;;;;5007993;28;20699;-70
2022/05/01 09:09:51;;;;;;;9.37;7.17;;;10.80;99.90;11.30;97074.00;;;;5000028;28;20213;-69
2022/05/01 09:15:07;;;;;;;7.63;6.93;;;10.80;99.90;11.60;97071.00;;;;4997204;28;20294;-69
2022/05/01 09:17:37;;;;;;;6.90;6.03;;;10.80;99.90;11.80;97085.00;;;;5001083;28;20214;-70
2022/05/01 09:20:08;;;;;;;10.77;7.20;;;10.90;99.90;11.70;97073.00;;;;5003119;28;20278;-69
2022/05/01 09:22:51;;;;;;;11.40;6.93;;;10.90;99.90;11.90;97084.00;;;;5001839;28;20203;-69
2022/05/01 09:25:22;;;;;;;7.20;6.50;;;11.00;99.90;11.90;97082.00;;;;5004090;28;20224;-69
2022/05/01 09:27:56;;;;;;;8.73;6.43;;;11.00;99.90;12.10;97086.00;;;;5006412;28;20203;-70
2022/05/01 09:30:32;;;;;;;8.63;6.30;;;11.10;99.90;11.50;97086.00;;;;5002832;28;20279;-71
2022/05/01 09:33:03;;;;;;;7.50;6.30;;;11.00;99.90;11.80;97090.00;;;;5004176;28;20248;-70
2022/05/01 09:35:34;;;;;;;6.93;6.23;;;11.00;99.90;11.80;97084.00;;;;5002657;28;20220;-70
2022/05/01 09:38:17;;;;;;;6.50;5.90;;;11.00;99.90;12.00;97086.00;;;;5003773;28;20194;-70
2022/05/01 09:40:48;;;;;;;6.30;5.70;;;11.10;99.90;12.00;97087.00;;;;5002818;28;20256;-70
2022/05/01 09:43:37;;;;;;;9.07;6.23;;;11.10;99.90;12.10;97092.00;;;;5003268;28;20246;-70
2022/05/01 09:46:17;;;;;;;7.07;5.83;;;11.20;99.90;11.80;97089.00;;;;5002093;28;20284;-69
2022/05/01 09:49:01;;;;;;;9.57;6.27;;;11.10;99.90;12.00;97101.00;;;;4994772;28;20206;-69
2022/05/01 09:51:31;;;;;;;7.40;5.87;;;11.10;99.90;12.00;97096.00;;;;4995208;28;20230;-70
2022/05/01 09:54:03;;;;;;;7.60;6.67;;;11.10;99.90;11.90;97093.00;;;;4997366;28;20202;-70
2022/05/01 09:56:45;;;;;;;7.23;6.37;;;11.10;99.90;12.10;97087.00;;;;4998410;28;20231;-70
2022/05/01 09:59:15;;;;;;;8.07;6.40;;;11.20;99.90;12.00;97082.00;;;;4994806;28;20198;-70
2022/05/01 10:01:57;;;;;;;10.27;9.20;;;11.20;99.90;11.60;97068.00;;;;4994849;28;20226;-69
2022/05/01 10:04:27;;;;;;;8.33;7.53;;;11.10;99.90;11.30;97072.00;;;;4993032;28;20225;-69
2022/05/01 10:06:58;;;;;;;7.07;6.30;;;11.00;99.90;11.50;97065.00;;;;4991230;28;20226;-69
2022/05/01 10:09:30;;;;;;;6.67;6.07;;;10.90;99.90;11.50;97073.00;;;;4992349;28;20198;-69
2022/05/01 10:12:02;;;;;;;12.93;7.47;;;10.90;99.90;11.90;97066.00;;;;4994799;28;20247;-69
2022/05/01 10:14:30;;;;;;;12.07;7.80;;;10.90;99.90;12.00;97063.00;;;;4994346;28;20203;-69
2022/05/01 10:17:00;;;;;;;10.77;8.47;;;11.00;99.90;12.20;97068.00;;;;4992197;28;20226;-69
2022/05/01 10:19:31;;;;;;;8.07;7.27;;;11.10;99.90;12.20;97064.00;;;;4996114;28;20696;-69
2022/05/01 10:22:00;;;;;;;9.00;7.10;;;11.20;99.90;12.40;97064.00;;;;4993991;28;20245;-69
2022/05/01 10:24:29;;;;;;;7.70;6.87;;;11.20;99.90;12.50;97061.00;;;;4995886;28;20222;-70
2022/05/01 10:27:01;;;;;;;14.83;8.47;;;11.40;99.90;12.60;97070.00;;;;4999619;28;20249;-69
2022/05/01 10:33:28;;;;;;;7.87;7.07;;;11.50;99.90;12.70;97056.00;;;;4994716;28;20225;-69
2022/05/01 10:36:30;;;;;;;6.93;6.20;;;11.60;99.90;12.60;97044.00;;;;4980451;28;20260;-69
2022/05/01 10:39:09;;;;;;;10.03;7.10;;;11.70;99.90;12.90;97041.00;;;;4993998;28;20205;-69
2022/05/01 10:41:43;;;;;;;8.07;7.27;;;11.80;99.90;13.40;97035.00;;;;4996042;28;20198;-69
2022/05/01 10:44:28;;;;;;;7.53;6.67;;;12.00;99.90;13.70;97033.00;;;;4995563;28;20217;-69
2022/05/01 10:47:05;;;;;;;9.20;6.80;;;12.20;99.90;13.90;97035.00;;;;4998259;28;20549;-69
2022/05/01 10:49:37;;;;;;;8.13;6.57;;;12.40;99.90;14.20;97037.00;;;;4993757;28;20362;-69
2022/05/01 10:52:19;;;;;;;7.67;6.77;;;12.60;99.90;14.60;97037.00;;;;4994627;28;20201;-69
2022/05/01 10:54:52;;;;;;;7.17;6.47;;;12.90;99.90;15.10;97026.00;;;;4993882;28;20245;-70
2022/05/01 10:57:22;;;;;;;6.57;5.50;;;13.30;99.90;15.80;97025.00;;;;5001618;28;20317;-70
2022/05/01 11:00:04;;;;;;;7.20;6.50;;;13.70;99.90;16.80;97013.00;;;;4999372;28;20214;-70
2022/05/01 11:02:44;;;;;;;7.20;5.67;;;14.30;99.90;16.50;97013.00;;;;4995360;28;20235;-70
2022/05/01 11:05:44;;;;;;;7.93;6.17;;;14.70;99.90;17.10;97002.00;;;;4995336;28;20297;-70
2022/05/01 11:08:21;;;;;;;6.53;5.93;;;15.20;99.90;17.00;97017.00;;;;4994608;28;20211;-70
2022/05/01 11:10:51;;;;;;;6.00;5.07;;;15.50;99.90;17.40;97012.00;;;;4995211;28;20260;-70
2022/05/01 11:13:31;;;;;;;6.20;4.97;;;15.70;99.90;17.20;97027.00;;;;4998028;28;20202;-70
2022/05/01 11:16:01;;;;;;;5.07;4.60;;;15.90;99.90;16.50;97012.00;;;;4996829;28;20219;-70
2022/05/01 11:18:31;;;;;;;5.50;4.93;;;16.00;99.90;16.10;96997.00;;;;4990438;28;20209;-69
2022/05/01 11:21:33;;;;;;;4.80;4.40;;;15.80;99.90;17.60;96981.00;;;;4989112;28;20213;-70
2022/05/01 11:24:05;;;;;;;5.30;4.10;;;16.00;99.90;19.00;96954.00;;;;4994081;28;20224;-69
2022/05/01 11:26:34;;;;;;;5.37;4.43;;;16.50;99.90;19.70;96979.00;;;;4994900;28;20230;-69
2022/05/01 11:29:12;;;;;;;4.83;4.33;;;17.10;99.90;19.50;96962.00;;;;4996501;28;20206;-69
2022/05/01 11:31:48;;;;;;;4.17;3.77;;;17.50;99.90;19.50;96976.00;;;;4992242;28;20229;-69
2022/05/01 11:34:51;;;;;;;3.73;3.33;;;17.80;99.90;19.70;96992.00;;;;4993180;28;20297;-69
2022/05/01 11:37:22;;;;;;;2.77;2.57;;;18.00;99.90;19.80;97002.00;;;;4999937;28;20543;-69
2022/05/01 11:40:26;;;;;;;3.13;2.87;;;18.10;99.90;19.20;96996.00;;;;4994453;28;20496;-68
2022/05/01 11:43:16;;;;;;;4.03;2.53;;;18.20;99.90;19.50;96988.00;;;;4995031;28;20225;-68
2022/05/01 11:45:46;;;;;;;2.40;2.10;;;18.20;99.90;18.70;96975.00;;;;4989290;28;20253;-67
2022/05/01 11:48:16;;;;;;;3.67;2.83;;;18.10;99.90;19.50;96968.00;;;;4992283;28;20240;-67
2022/05/01 11:50:48;;;;;;;2.00;1.90;;;18.20;99.90;19.40;96958.00;;;;4988807;28;20256;-68
2022/05/01 11:53:20;;;;;;;3.17;2.87;;;18.20;99.90;19.20;96957.00;;;;4994243;28;20280;-68
2022/05/01 12:04:29;;;;;;;2.80;2.60;;;18.30;99.90;20.30;96959.00;;;;4991219;28;20203;-68